Time;durP1;ratioP1;P1;durP2;ratioP2;P2;SDS_P1;SDS_P2;PMS_P1;PMS_P2;Temp;Humidity;BMP_temperature;BMP_pressure;BME280_temperature;BME280_humidity;BME280_pressure;Samples;Min_cycle;Max_cycle;Signal;HPM_P1;HPM_P2
2021/03/02 00:00:19;;;;;;;10.35;5.50;;;;;;;1.37;86.54;100674.97;3521534;28;20043;-59
2021/03/02 00:02:02;;;;;;;7.60;4.32;;;;;;;1.39;86.20;100665.78;3521939;28;20520;-59
2021/03/02 00:03:45;;;;;;;11.32;5.85;;;;;;;1.40;86.09;100667.53;3522240;28;20398;-59
2021/03/02 00:05:27;;;;;;;12.15;6.03;;;;;;;1.40;86.22;100664.97;3523217;28;20132;-59
2021/03/02 00:07:11;;;;;;;9.27;5.50;;;;;;;1.42;86.31;100662.50;3523454;28;20143;-59
2021/03/02 00:08:54;;;;;;;12.25;5.53;;;;;;;1.43;86.27;100666.84;3519803;28;20086;-59
2021/03/02 00:10:55;;;;;;;13.48;5.90;;;;;;;1.43;86.60;100659.19;3524335;28;20067;-59
2021/03/02 00:12:38;;;;;;;9.10;4.88;;;;;;;1.44;86.17;100661.84;3522417;28;20047;-59
2021/03/02 00:14:21;;;;;;;12.27;5.63;;;;;;;1.45;86.32;100645.72;3521510;28;20139;-59
2021/03/02 00:16:04;;;;;;;11.95;5.53;;;;;;;1.45;86.20;100642.28;3523505;28;20047;-59
2021/03/02 00:17:48;;;;;;;11.80;5.55;;;;;;;1.45;85.98;100638.03;3517445;28;20044;-59
2021/03/02 00:19:36;;;;;;;9.80;5.03;;;;;;;1.47;85.85;100641.56;3510982;28;20044;-59
2021/03/02 00:21:21;;;;;;;10.73;6.07;;;;;;;1.47;86.38;100638.13;3514351;28;20526;-59
2021/03/02 00:23:07;;;;;;;13.43;5.93;;;;;;;1.49;86.03;100645.09;3513402;28;20645;-59
2021/03/02 00:24:50;;;;;;;9.90;5.88;;;;;;;1.51;85.78;100635.00;3522300;28;20051;-59
2021/03/02 00:26:37;;;;;;;10.13;5.18;;;;;;;1.51;85.97;100632.44;3520121;28;20165;-59
2021/03/02 00:28:21;;;;;;;10.30;4.97;;;;;;;1.51;85.94;100629.88;3524953;28;20048;-59
2021/03/02 00:30:05;;;;;;;10.15;4.88;;;;;;;1.53;85.99;100630.84;3519766;28;20126;-59
2021/03/02 00:31:49;;;;;;;11.32;4.97;;;;;;;1.53;85.95;100625.75;3522651;28;20124;-59
2021/03/02 00:33:32;;;;;;;7.68;4.53;;;;;;;1.54;85.65;100623.28;3521506;28;20058;-59
2021/03/02 00:35:15;;;;;;;10.80;5.97;;;;;;;1.54;85.94;100615.63;3520662;28;20053;-59
2021/03/02 00:36:57;;;;;;;9.23;4.30;;;;;;;1.55;85.66;100608.84;3524194;28;20134;-59
2021/03/02 00:38:39;;;;;;;11.93;5.78;;;;;;;1.56;85.78;100611.50;3518094;28;20055;-59
2021/03/02 00:40:21;;;;;;;10.75;5.57;;;;;;;1.58;85.64;100609.03;3510714;28;20140;-60
2021/03/02 00:42:05;;;;;;;10.35;4.90;;;;;;;1.59;85.64;100602.28;3519592;28;20048;-60
2021/03/02 00:43:47;;;;;;;9.13;4.50;;;;;;;1.58;85.60;100596.25;3523814;28;20047;-59
2021/03/02 00:45:28;;;;;;;8.15;4.90;;;;;;;1.58;85.80;100603.91;3522060;28;20058;-60
2021/03/02 00:47:10;;;;;;;9.80;5.35;;;;;;;1.61;85.78;100593.00;3522202;28;20054;-60
2021/03/02 00:48:52;;;;;;;6.88;4.47;;;;;;;1.61;85.54;100588.78;3510510;28;20044;-59
2021/03/02 00:50:34;;;;;;;9.35;4.82;;;;;;;1.63;85.82;100592.31;3516384;28;20051;-60
2021/03/02 00:52:17;;;;;;;10.35;4.93;;;;;;;1.60;85.64;100586.13;3524721;28;20083;-59
2021/03/02 00:53:58;;;;;;;8.30;4.05;;;;;;;1.64;85.39;100583.88;3520226;28;20036;-59
2021/03/02 00:55:40;;;;;;;8.75;4.47;;;;;;;1.66;85.31;100577.19;3522304;28;20048;-59
2021/03/02 00:57:21;;;;;;;9.52;4.47;;;;;;;1.68;85.21;100569.59;3521022;28;20051;-59
2021/03/02 00:59:03;;;;;;;8.45;3.97;;;;;;;1.67;85.22;100571.28;3519709;28;20083;-59
2021/03/02 01:00:44;;;;;;;9.43;5.45;;;;;;;1.67;85.31;100571.28;3524332;28;20055;-59
2021/03/02 01:02:27;;;;;;;9.57;5.25;;;;;;;1.67;85.37;100558.50;3519541;28;20466;-59
2021/03/02 01:04:09;;;;;;;10.38;5.93;;;;;;;1.67;85.05;100557.59;3524354;28;20100;-59
2021/03/02 01:05:50;;;;;;;7.15;3.85;;;;;;;1.68;85.17;100551.69;3514149;28;20185;-60
2021/03/02 01:07:33;;;;;;;8.65;4.43;;;;;;;1.67;85.06;100549.91;3513056;28;20097;-59
2021/03/02 01:09:15;;;;;;;11.63;5.28;;;;;;;1.65;85.04;100543.81;3511341;28;20485;-59
2021/03/02 01:10:56;;;;;;;8.43;4.85;;;;;;;1.62;84.85;100546.19;3512375;28;20578;-59
2021/03/02 01:12:38;;;;;;;9.73;4.82;;;;;;;1.59;85.18;100538.34;3524585;28;20051;-59
2021/03/02 01:14:20;;;;;;;12.00;5.40;;;;;;;1.55;85.46;100540.69;3514470;28;20052;-59
2021/03/02 01:16:01;;;;;;;12.88;5.53;;;;;;;1.53;85.30;100543.91;3509684;28;20504;-59
2021/03/02 01:17:43;;;;;;;11.40;6.03;;;;;;;1.50;85.63;100547.19;3521157;28;20051;-59
2021/03/02 01:19:25;;;;;;;12.63;6.10;;;;;;;1.48;85.94;100545.34;3523553;28;20138;-60
2021/03/02 01:21:06;;;;;;;10.93;5.40;;;;;;;1.47;85.80;100543.53;3510910;28;20501;-58
2021/03/02 01:22:49;;;;;;;10.82;4.97;;;;;;;1.46;85.58;100537.56;3513821;28;20067;-59
2021/03/02 01:24:31;;;;;;;10.43;6.20;;;;;;;1.46;85.79;100536.66;3524212;28;20147;-59
2021/03/02 01:26:12;;;;;;;12.32;6.22;;;;;;;1.44;85.85;100534.03;3520786;28;20074;-59
2021/03/02 01:27:54;;;;;;;15.00;6.32;;;;;;;1.43;85.88;100537.34;3523605;28;20388;-59
2021/03/02 01:29:36;;;;;;;14.98;6.45;;;;;;;1.43;86.04;100527.13;3520960;28;20055;-59
2021/03/02 01:31:17;;;;;;;8.98;5.78;;;;;;;1.41;85.72;100523.59;3521616;28;20048;-59
2021/03/02 01:32:59;;;;;;;8.70;4.43;;;;;;;1.40;85.92;100518.38;3521934;28;20051;-59
2021/03/02 01:34:41;;;;;;;7.82;4.57;;;;;;;1.41;85.86;100522.69;3520558;28;20055;-59
2021/03/02 01:36:23;;;;;;;10.80;5.70;;;;;;;1.41;86.01;100515.94;3510209;28;20138;-59
2021/03/02 01:38:05;;;;;;;14.20;6.13;;;;;;;1.37;86.06;100509.72;3517307;28;20055;-60
2021/03/02 01:39:47;;;;;;;13.20;6.35;;;;;;;1.36;85.84;100505.41;3523868;28;20079;-53
2021/03/02 01:41:28;;;;;;;11.65;5.97;;;;;;;1.35;86.17;100505.28;3520992;28;20067;-53
2021/03/02 01:43:11;;;;;;;10.32;6.57;;;;;;;1.32;86.13;100495.78;3521420;28;20398;-54
2021/03/02 01:44:53;;;;;;;16.98;6.35;;;;;;;1.30;86.32;100487.13;3522202;28;20079;-55
2021/03/02 01:46:35;;;;;;;11.85;6.47;;;;;;;1.31;86.46;100483.75;3520000;28;20065;-51
2021/03/02 01:48:17;;;;;;;9.80;5.57;;;;;;;1.30;86.42;100497.34;3510005;28;20052;-51
2021/03/02 01:49:59;;;;;;;12.82;6.35;;;;;;;1.25;86.23;100478.28;3513302;28;20142;-54
2021/03/02 01:51:40;;;;;;;12.50;6.38;;;;;;;1.24;86.32;100486.72;3509813;28;20064;-53
2021/03/02 01:53:23;;;;;;;13.68;6.43;;;;;;;1.21;86.71;100476.28;3521178;28;20143;-54
2021/03/02 01:55:06;;;;;;;11.38;5.57;;;;;;;1.19;86.71;100482.97;3522226;28;20134;-52
2021/03/02 01:56:48;;;;;;;13.27;4.53;;;;;;;1.17;86.68;100482.00;3522147;28;20048;-56
2021/03/02 01:58:30;;;;;;;13.60;5.95;;;;;;;1.17;86.93;100471.78;3520595;28;20048;-54
2021/03/02 02:00:20;;;;;;;9.80;5.25;;;;;;;1.17;86.97;100470.09;3523954;28;20055;-51
2021/03/02 02:02:03;;;;;;;9.95;6.35;;;;;;;1.16;87.06;100470.91;3519298;28;20087;-54
2021/03/02 02:03:49;;;;;;;10.48;5.28;;;;;;;1.18;86.96;100473.56;3521873;28;20055;-52
2021/03/02 02:05:36;;;;;;;12.13;6.07;;;;;;;1.16;86.84;100470.91;3520801;28;20066;-53
2021/03/02 02:07:22;;;;;;;11.35;6.47;;;;;;;1.15;86.87;100463.13;3519003;28;20140;-55
2021/03/02 02:09:12;;;;;;;11.30;6.07;;;;;;;1.13;86.91;100464.72;3523969;28;20124;-53
2021/03/02 02:11:00;;;;;;;13.98;6.20;;;;;;;1.11;86.86;100456.94;3518449;28;20641;-55
2021/03/02 02:12:44;;;;;;;9.95;4.40;;;;;;;1.09;87.14;100458.53;3522932;28;20070;-55
2021/03/02 02:14:34;;;;;;;13.65;6.50;;;;;;;1.10;87.17;100459.41;3521044;28;20508;-55
2021/03/02 02:16:21;;;;;;;12.15;5.72;;;;;;;1.08;87.18;100455.88;3520331;28;20051;-54
2021/03/02 02:18:05;;;;;;;10.85;5.65;;;;;;;1.08;87.60;100460.97;3523689;28;20424;-55
2021/03/02 02:19:50;;;;;;;12.40;6.45;;;;;;;1.06;87.40;100447.22;3519687;28;20482;-55
2021/03/02 02:21:44;;;;;;;12.55;5.57;;;;;;;1.05;87.47;100453.09;3520724;28;20079;-54
2021/03/02 02:23:38;;;;;;;11.00;5.50;;;;;;;1.04;87.45;100457.34;3509837;28;20082;-54
2021/03/02 02:25:28;;;;;;;12.52;5.65;;;;;;;1.03;87.65;100453.00;3518244;28;20085;-55
2021/03/02 02:27:11;;;;;;;12.43;5.53;;;;;;;1.02;87.59;100450.34;3524000;28;20531;-52
2021/03/02 02:28:54;;;;;;;12.07;5.93;;;;;;;1.03;87.39;100458.13;3523100;28;20147;-56
2021/03/02 02:30:40;;;;;;;9.48;5.15;;;;;;;1.02;87.41;100466.59;3522476;28;20314;-54
2021/03/02 02:32:23;;;;;;;12.52;5.30;;;;;;;1.00;87.72;100463.06;3525591;28;20044;-55
2021/03/02 02:34:10;;;;;;;11.32;5.68;;;;;;;1.02;87.53;100463.13;3521357;28;20054;-54
2021/03/02 02:35:53;;;;;;;8.90;5.03;;;;;;;1.01;87.89;100456.25;3525486;28;20062;-54
2021/03/02 02:37:35;;;;;;;8.63;5.35;;;;;;;0.97;87.92;100455.19;3522102;28;20051;-53
2021/03/02 02:39:18;;;;;;;12.35;6.40;;;;;;;0.96;87.70;100455.97;3523544;28;20134;-53
2021/03/02 02:41:01;;;;;;;9.82;5.70;;;;;;;0.95;87.83;100446.53;3524096;28;20079;-53
2021/03/02 02:42:47;;;;;;;11.20;4.93;;;;;;;0.96;88.04;100459.38;3521725;28;20424;-53
2021/03/02 02:44:29;;;;;;;12.90;6.20;;;;;;;0.98;88.01;100445.06;3512059;28;20133;-53
2021/03/02 02:46:11;;;;;;;10.13;5.25;;;;;;;1.01;88.31;100440.94;3515208;28;20055;-55
2021/03/02 02:47:54;;;;;;;10.02;5.90;;;;;;;1.03;88.12;100444.47;3512944;28;20078;-54
2021/03/02 02:49:36;;;;;;;9.27;5.72;;;;;;;1.02;87.82;100433.38;3522118;28;20055;-54
2021/03/02 02:51:19;;;;;;;10.40;5.35;;;;;;;1.03;87.82;100430.00;3523595;28;20100;-53
2021/03/02 02:53:01;;;;;;;13.52;6.72;;;;;;;1.04;88.05;100433.47;3524460;28;20166;-53
2021/03/02 02:54:45;;;;;;;12.07;6.93;;;;;;;1.03;88.02;100424.03;3520867;28;20055;-57
2021/03/02 02:56:28;;;;;;;12.23;5.60;;;;;;;1.05;87.89;100422.44;3525905;28;20586;-57
2021/03/02 02:58:12;;;;;;;10.43;6.25;;;;;;;1.05;88.13;100418.22;3523504;28;20047;-56
2021/03/02 02:59:55;;;;;;;10.55;5.63;;;;;;;1.05;87.99;100428.44;3523611;28;20047;-56
2021/03/02 03:01:40;;;;;;;13.35;6.90;;;;;;;1.05;88.15;100433.53;3524465;28;20052;-55
2021/03/02 03:03:27;;;;;;;13.77;7.55;;;;;;;1.04;88.29;100428.38;3521127;28;20055;-57
2021/03/02 03:05:12;;;;;;;12.35;6.13;;;;;;;1.03;87.95;100426.59;3525766;28;20158;-54
2021/03/02 03:06:57;;;;;;;11.23;5.65;;;;;;;1.04;88.21;100430.91;3521700;28;20047;-56
2021/03/02 03:08:47;;;;;;;14.85;7.97;;;;;;;1.02;87.98;100429.91;3523607;28;20074;-54
2021/03/02 03:10:30;;;;;;;15.82;7.43;;;;;;;1.01;87.95;100433.28;3523740;28;20044;-57
2021/03/02 03:12:14;;;;;;;13.07;7.20;;;;;;;1.01;88.10;100430.72;3522218;28;20047;-56
2021/03/02 03:14:02;;;;;;;12.95;6.75;;;;;;;1.01;88.13;100425.59;3524111;28;20083;-57
2021/03/02 03:15:48;;;;;;;16.20;6.43;;;;;;;0.98;87.96;100432.28;3522108;28;20214;-56
2021/03/02 03:17:33;;;;;;;15.80;8.02;;;;;;;0.96;88.34;100422.75;3524810;28;20047;-56
2021/03/02 03:19:20;;;;;;;15.10;7.00;;;;;;;0.94;88.30;100420.09;3513243;28;20433;-54
2021/03/02 03:21:02;;;;;;;11.05;6.72;;;;;;;0.91;88.13;100413.91;3514545;28;20047;-56
2021/03/02 03:22:45;;;;;;;13.05;7.45;;;;;;;0.90;88.04;100414.72;3525401;28;20043;-56
2021/03/02 03:24:28;;;;;;;16.10;8.00;;;;;;;0.88;88.21;100413.72;3522073;28;20051;-56
2021/03/02 03:26:11;;;;;;;13.02;7.50;;;;;;;0.88;88.42;100422.28;3523747;28;20047;-56
2021/03/02 03:27:56;;;;;;;20.83;9.43;;;;;;;0.86;88.40;100415.28;3513191;28;20047;-56
2021/03/02 03:29:40;;;;;;;17.10;7.85;;;;;;;0.84;88.66;100414.28;3513189;28;20083;-55
2021/03/02 03:31:22;;;;;;;16.17;8.60;;;;;;;0.85;88.60;100413.53;3511345;28;20059;-51
2021/03/02 03:33:07;;;;;;;15.00;7.10;;;;;;;0.85;88.43;100426.28;3517031;28;20420;-53
2021/03/02 03:34:51;;;;;;;17.30;8.82;;;;;;;0.82;88.50;100421.84;3525639;28;20043;-54
2021/03/02 03:36:36;;;;;;;15.93;8.05;;;;;;;0.83;88.59;100415.09;3521301;28;20059;-55
2021/03/02 03:38:17;;;;;;;14.32;8.63;;;;;;;0.82;88.74;100408.22;3522561;28;20047;-53
2021/03/02 03:39:59;;;;;;;16.80;9.07;;;;;;;0.82;88.94;100409.09;3522631;28;20474;-53
2021/03/02 03:41:41;;;;;;;16.70;9.00;;;;;;;0.80;88.88;100403.00;3520294;28;20052;-54
2021/03/02 03:43:23;;;;;;;13.57;6.40;;;;;;;0.80;88.95;100400.44;3511396;28;20080;-53
2021/03/02 03:45:06;;;;;;;20.63;9.52;;;;;;;0.78;88.95;100399.47;3518121;28;20048;-54
2021/03/02 03:46:48;;;;;;;16.70;8.27;;;;;;;0.78;89.10;100402.03;3524354;28;20527;-53
2021/03/02 03:48:30;;;;;;;16.17;9.25;;;;;;;0.77;89.15;100390.94;3521506;28;20052;-53
2021/03/02 03:50:13;;;;;;;20.98;10.13;;;;;;;0.75;89.32;100392.50;3524193;28;20052;-54
2021/03/02 03:51:57;;;;;;;19.90;9.45;;;;;;;0.73;89.18;100394.06;3522986;28;20560;-56
2021/03/02 03:53:40;;;;;;;;;;;;;;;0.77;89.04;100397.69;3520693;28;20058;-52
2021/03/02 03:55:27;;;;;;;18.65;9.15;;;;;;;0.76;88.76;100399.38;3525201;28;19927;-55
2021/03/02 03:57:10;;;;;;;17.13;8.77;;;;;;;0.78;88.70;100390.13;3520160;28;20075;-57
2021/03/02 03:58:53;;;;;;;16.20;8.77;;;;;;;0.76;88.64;100381.50;3522983;28;20051;-55
2021/03/02 04:00:35;;;;;;;20.50;10.55;;;;;;;0.74;88.83;100397.50;3522258;28;20047;-53
2021/03/02 04:02:17;;;;;;;13.70;7.13;;;;;;;0.74;88.72;100387.31;3520990;28;20098;-55
2021/03/02 04:04:00;;;;;;;15.13;8.35;;;;;;;0.73;89.08;100393.19;3523873;28;20051;-53
2021/03/02 04:05:42;;;;;;;21.30;11.25;;;;;;;0.74;88.93;100379.63;3519202;28;20074;-52
2021/03/02 04:07:24;;;;;;;14.10;8.20;;;;;;;0.72;89.17;100391.41;3511027;28;20055;-52
2021/03/02 04:09:06;;;;;;;23.35;10.88;;;;;;;0.70;89.07;100381.13;3519007;28;20047;-53
2021/03/02 04:10:48;;;;;;;20.67;9.25;;;;;;;0.71;89.21;100369.22;3522795;28;20103;-53
2021/03/02 04:12:36;;;;;;;22.42;10.27;;;;;;;0.69;89.23;100379.34;3522379;28;20500;-53
2021/03/02 04:14:38;;;;;;;20.80;10.82;;;;;;;0.68;89.26;100379.22;3518345;28;20138;-53
2021/03/02 04:16:20;;;;;;;22.15;11.02;;;;;;;0.68;89.36;100381.78;3525019;28;20066;-55
2021/03/02 04:18:02;;;;;;;24.27;11.40;;;;;;;0.67;89.59;100375.81;3516100;28;20068;-53
2021/03/02 04:19:44;;;;;;;18.50;9.48;;;;;;;0.66;89.25;100375.69;3511022;28;20048;-55
2021/03/02 04:21:25;;;;;;;19.02;9.23;;;;;;;0.64;89.71;100373.03;3522265;28;20056;-53
2021/03/02 04:23:08;;;;;;;22.90;10.70;;;;;;;0.59;89.50;100361.66;3522226;28;20048;-54
2021/03/02 04:24:49;;;;;;;22.42;9.98;;;;;;;0.63;89.63;100357.63;3524031;28;20539;-54
2021/03/02 04:26:31;;;;;;;23.92;11.35;;;;;;;0.61;89.69;100362.63;3517060;28;20071;-55
2021/03/02 04:28:13;;;;;;;21.13;9.07;;;;;;;0.61;89.90;100363.53;3510663;28;20509;-53
2021/03/02 04:29:54;;;;;;;24.77;11.45;;;;;;;0.62;89.81;100361.84;3520406;28;20047;-54
2021/03/02 04:31:37;;;;;;;19.35;10.75;;;;;;;0.61;89.81;100362.63;3522313;28;20047;-54
2021/03/02 04:33:19;;;;;;;23.42;10.65;;;;;;;0.61;90.08;100355.88;3522368;28;20522;-53
2021/03/02 04:35:00;;;;;;;24.48;11.63;;;;;;;0.63;90.12;100353.44;3521853;28;20145;-54
2021/03/02 04:36:42;;;;;;;18.33;9.43;;;;;;;0.65;89.92;100353.50;3524012;28;20044;-54
2021/03/02 04:38:24;;;;;;;25.25;11.20;;;;;;;0.64;90.00;100360.28;3520947;28;20086;-55
2021/03/02 04:40:08;;;;;;;20.40;9.63;;;;;;;0.63;89.59;100358.53;3524616;28;20051;-52
2021/03/02 04:41:50;;;;;;;31.50;13.23;;;;;;;0.60;90.04;100356.66;3521100;28;20051;-54
2021/03/02 04:43:31;;;;;;;22.63;10.60;;;;;;;0.60;89.99;100359.19;3521920;28;20059;-55
2021/03/02 04:45:14;;;;;;;22.65;11.70;;;;;;;0.59;89.99;100348.88;3512416;28;20100;-52
2021/03/02 04:46:56;;;;;;;27.90;12.70;;;;;;;0.59;89.97;100361.66;3512698;28;20040;-53
2021/03/02 04:48:38;;;;;;;36.45;13.65;;;;;;;0.58;90.31;100355.66;3510352;28;20135;-54
2021/03/02 04:50:20;;;;;;;26.30;13.45;;;;;;;0.58;90.21;100365.00;3516064;28;20138;-55
2021/03/02 04:52:02;;;;;;;21.65;9.32;;;;;;;0.56;90.49;100352.13;3524441;28;20051;-54
2021/03/02 04:53:44;;;;;;;28.55;12.60;;;;;;;0.57;90.44;100358.13;3520850;28;20075;-55
2021/03/02 04:55:26;;;;;;;24.15;12.15;;;;;;;0.58;90.38;100373.53;3523468;28;20469;-54
2021/03/02 04:57:08;;;;;;;25.88;10.70;;;;;;;0.58;89.93;100360.78;3521853;28;20495;-53
2021/03/02 04:58:49;;;;;;;24.05;12.07;;;;;;;0.59;90.05;100348.88;3519637;28;20082;-54
2021/03/02 05:00:31;;;;;;;27.35;10.25;;;;;;;0.58;90.15;100350.56;3510831;28;20056;-52
2021/03/02 05:02:13;;;;;;;26.45;13.27;;;;;;;0.58;90.02;100353.13;3516015;28;20052;-55
2021/03/02 05:03:55;;;;;;;24.80;10.73;;;;;;;0.57;90.18;100343.69;3524277;28;20108;-55
2021/03/02 05:05:36;;;;;;;25.58;10.45;;;;;;;0.58;89.90;100353.13;3514380;28;20345;-54
2021/03/02 05:07:18;;;;;;;25.60;13.70;;;;;;;0.56;90.10;100356.34;3511192;28;20417;-53
2021/03/02 05:08:59;;;;;;;22.85;10.30;;;;;;;0.57;90.03;100355.56;3521885;28;20101;-53
2021/03/02 05:10:41;;;;;;;24.95;11.57;;;;;;;0.56;89.95;100344.47;3519456;28;20051;-55
2021/03/02 05:12:23;;;;;;;25.20;10.52;;;;;;;0.57;90.09;100351.34;3510265;28;20059;-54
2021/03/02 05:14:05;;;;;;;23.85;12.05;;;;;;;0.57;90.20;100346.22;3511084;28;20116;-51
2021/03/02 05:15:46;;;;;;;26.33;11.80;;;;;;;0.56;90.41;100346.13;3510173;28;20058;-54
2021/03/02 05:17:29;;;;;;;22.88;11.02;;;;;;;0.56;90.00;100357.25;3512861;28;20383;-53
2021/03/02 05:19:11;;;;;;;23.88;11.05;;;;;;;0.56;90.13;100335.91;3511324;28;20059;-54
2021/03/02 05:20:52;;;;;;;22.02;10.85;;;;;;;0.56;90.43;100347.03;3510855;28;20146;-56
2021/03/02 05:22:34;;;;;;;23.70;10.52;;;;;;;0.55;90.45;100345.25;3512510;28;20063;-55
2021/03/02 05:24:16;;;;;;;26.35;11.85;;;;;;;0.55;90.43;100339.28;3524243;28;20084;-54
2021/03/02 05:25:57;;;;;;;23.70;11.18;;;;;;;0.57;90.13;100342.81;3520557;28;20048;-55
2021/03/02 05:27:39;;;;;;;20.05;10.60;;;;;;;0.57;90.29;100350.47;3524054;28;20043;-55
2021/03/02 05:29:20;;;;;;;21.25;9.95;;;;;;;0.58;90.36;100348.00;3513729;28;20063;-54
2021/03/02 05:31:02;;;;;;;25.05;11.43;;;;;;;0.58;90.14;100345.47;3510938;28;20105;-55
2021/03/02 05:32:44;;;;;;;22.20;10.65;;;;;;;0.60;89.98;100346.44;3521443;28;20530;-54
2021/03/02 05:34:26;;;;;;;22.80;10.55;;;;;;;0.61;90.27;100348.22;3520669;28;20044;-54
2021/03/02 05:36:08;;;;;;;27.48;11.25;;;;;;;0.60;90.24;100341.31;3524180;28;20050;-55
2021/03/02 05:37:50;;;;;;;21.95;11.18;;;;;;;0.61;90.37;100344.75;3515489;28;20040;-55
2021/03/02 05:39:31;;;;;;;20.17;9.80;;;;;;;0.61;89.98;100337.09;3510193;28;20055;-54
2021/03/02 05:41:13;;;;;;;29.40;12.32;;;;;;;0.59;90.07;100325.91;3519739;28;20044;-55
2021/03/02 05:42:55;;;;;;;23.40;10.90;;;;;;;0.60;90.12;100351.53;3521872;28;20055;-53
2021/03/02 05:44:36;;;;;;;19.35;10.35;;;;;;;0.61;90.04;100332.91;3511756;28;20058;-52
2021/03/02 05:46:22;;;;;;;22.50;10.38;;;;;;;0.63;90.17;100332.09;3513357;28;20072;-55
2021/03/02 05:48:09;;;;;;;24.48;11.77;;;;;;;0.63;90.17;100338.09;3523858;28;20511;-55
2021/03/02 05:49:51;;;;;;;23.98;10.82;;;;;;;0.64;90.31;100331.31;3520590;28;20151;-54
2021/03/02 05:51:33;;;;;;;25.08;11.48;;;;;;;0.64;90.33;100344.09;3522125;28;20059;-54
2021/03/02 05:53:16;;;;;;;19.50;9.65;;;;;;;0.65;90.16;100328.88;3520050;28;20420;-53
2021/03/02 05:54:59;;;;;;;25.13;12.20;;;;;;;0.65;90.26;100315.19;3521376;28;20055;-60
2021/03/02 05:56:41;;;;;;;23.08;10.50;;;;;;;0.66;90.34;100320.41;3522389;28;20102;-60
2021/03/02 05:58:23;;;;;;;25.20;10.70;;;;;;;0.68;90.18;100326.47;3520539;28;20051;-59
2021/03/02 06:00:06;;;;;;;18.70;9.02;;;;;;;0.69;90.00;100324.84;3523923;28;20065;-60
2021/03/02 06:01:48;;;;;;;17.95;8.88;;;;;;;0.71;90.02;100326.69;3521414;28;20046;-60
2021/03/02 06:03:35;;;;;;;21.98;11.52;;;;;;;0.71;90.00;100325.81;3524260;28;20575;-60
2021/03/02 06:05:17;;;;;;;23.08;10.27;;;;;;;0.72;89.96;100325.00;3523292;28;20052;-60
2021/03/02 06:07:00;;;;;;;24.08;11.20;;;;;;;0.73;89.76;100329.34;3523519;28;20118;-60
2021/03/02 06:08:44;;;;;;;23.65;9.93;;;;;;;0.74;90.17;100324.34;3526060;28;20058;-60
2021/03/02 06:10:30;;;;;;;24.80;10.90;;;;;;;0.75;89.78;100328.66;3518115;28;20048;-60
2021/03/02 06:12:12;;;;;;;25.23;10.40;;;;;;;0.74;89.74;100323.47;3511900;28;20067;-60
2021/03/02 06:13:54;;;;;;;20.90;10.45;;;;;;;0.77;89.79;100328.75;3514873;28;20075;-60
2021/03/02 06:15:53;;;;;;;19.08;9.77;;;;;;;0.77;89.67;100319.44;3513320;28;20052;-60
2021/03/02 06:17:34;;;;;;;27.83;11.80;;;;;;;0.78;89.55;100313.53;3512759;28;20056;-60
2021/03/02 06:19:18;;;;;;;22.75;10.88;;;;;;;0.79;89.74;100314.44;3517045;28;20074;-60
2021/03/02 06:21:11;;;;;;;16.60;8.20;;;;;;;0.79;89.67;100319.53;3526386;28;20058;-59
2021/03/02 06:22:52;;;;;;;25.15;11.88;;;;;;;0.81;89.62;100320.50;3524446;28;20103;-60
2021/03/02 06:24:35;;;;;;;28.70;11.93;;;;;;;0.80;89.90;100311.94;3522970;28;20044;-60
2021/03/02 06:26:27;;;;;;;32.50;13.20;;;;;;;0.81;89.93;100307.75;3512153;28;20048;-60
2021/03/02 06:28:14;;;;;;;23.35;11.25;;;;;;;0.82;89.96;100300.94;3521004;28;20424;-60
2021/03/02 06:30:13;;;;;;;32.47;12.40;;;;;;;0.83;89.74;100310.38;3525292;28;20051;-60
2021/03/02 06:31:55;;;;;;;27.95;11.23;;;;;;;0.83;89.56;100308.72;3512693;28;20527;-60
2021/03/02 06:33:37;;;;;;;28.77;12.48;;;;;;;0.84;89.55;100307.91;3516473;28;20482;-60
2021/03/02 06:35:32;;;;;;;31.50;14.07;;;;;;;0.84;89.60;100307.91;3526077;28;20504;-60
2021/03/02 06:37:13;;;;;;;27.25;11.55;;;;;;;0.86;89.61;100310.56;3522242;28;20530;-59
2021/03/02 06:38:55;;;;;;;32.80;13.75;;;;;;;0.87;89.68;100314.91;3523757;28;20542;-60
2021/03/02 06:40:41;;;;;;;28.02;12.25;;;;;;;0.88;89.51;100309.00;3523498;28;20424;-54
2021/03/02 06:42:24;;;;;;;30.45;14.00;;;;;;;0.88;89.67;100317.53;3521318;28;20063;-55
2021/03/02 06:44:11;;;;;;;30.90;13.90;;;;;;;0.88;89.87;100309.88;3511972;28;20044;-54
2021/03/02 06:45:53;;;;;;;34.38;14.00;;;;;;;0.90;89.83;100310.84;3518298;28;20085;-55
2021/03/02 06:47:35;;;;;;;28.48;12.27;;;;;;;0.92;89.62;100308.41;3525335;28;20047;-54
2021/03/02 06:49:17;;;;;;;26.60;12.20;;;;;;;0.93;89.76;100312.72;3522680;28;20484;-54
2021/03/02 06:51:00;;;;;;;34.40;15.27;;;;;;;0.93;89.64;100305.94;3524487;28;20446;-55
2021/03/02 06:52:43;;;;;;;30.30;13.07;;;;;;;0.94;89.28;100317.03;3525979;28;20056;-53
2021/03/02 06:54:31;;;;;;;31.42;13.93;;;;;;;0.95;89.19;100313.72;3522347;28;20120;-54
2021/03/02 06:56:13;;;;;;;30.13;13.50;;;;;;;0.96;89.53;100320.56;3524829;28;20047;-55
2021/03/02 06:58:22;;;;;;;37.58;13.88;;;;;;;0.96;89.16;100313.78;3514086;28;20048;-55
2021/03/02 07:00:06;;;;;;;32.60;13.48;;;;;;;0.96;89.46;100324.00;3515069;28;20416;-53
2021/03/02 07:01:48;;;;;;;34.67;15.35;;;;;;;0.98;89.25;100307.13;3511757;28;20048;-55
2021/03/02 07:03:32;;;;;;;36.58;15.27;;;;;;;0.98;89.29;100324.09;3513396;28;20083;-54
2021/03/02 07:05:16;;;;;;;29.63;13.98;;;;;;;0.99;89.21;100315.66;3514277;28;20048;-53
2021/03/02 07:07:00;;;;;;;39.95;14.77;;;;;;;0.99;89.06;100318.22;3511642;28;20048;-54
2021/03/02 07:08:42;;;;;;;;;;;;;;;1.01;89.26;100308.09;3514087;28;20428;-53
2021/03/02 07:10:24;;;;;;;33.30;12.07;;;;;;;1.01;89.11;100308.09;3511746;28;19924;-54
2021/03/02 07:12:07;;;;;;;31.10;12.45;;;;;;;1.01;89.33;100311.53;3521683;28;20040;-54
2021/03/02 07:13:49;;;;;;;34.70;14.30;;;;;;;1.03;89.34;100314.19;3523259;28;20051;-54
2021/03/02 07:15:35;;;;;;;38.80;14.75;;;;;;;1.04;89.26;100309.16;3523180;28;20043;-54
2021/03/02 07:17:16;;;;;;;30.10;13.20;;;;;;;1.06;89.11;100314.38;3520701;28;20055;-53
2021/03/02 07:19:01;;;;;;;40.75;15.73;;;;;;;1.07;89.19;100303.34;3525467;28;20043;-53
2021/03/02 07:20:49;;;;;;;37.10;14.25;;;;;;;1.08;88.85;100306.00;3520718;28;20051;-54
2021/03/02 07:22:34;;;;;;;42.08;14.75;;;;;;;1.09;89.02;100301.75;3525038;28;20051;-53
2021/03/02 07:24:19;;;;;;;39.33;15.40;;;;;;;1.11;88.94;100320.66;3522105;28;20043;-53
2021/03/02 07:26:03;;;;;;;36.70;14.85;;;;;;;1.11;88.56;100316.41;3521344;28;20582;-54
2021/03/02 07:27:48;;;;;;;40.92;13.57;;;;;;;1.11;88.41;100302.78;3522190;28;20044;-53
2021/03/02 07:29:30;;;;;;;35.08;13.77;;;;;;;1.12;88.90;100305.41;3522161;28;20067;-54
2021/03/02 07:31:12;;;;;;;37.47;14.98;;;;;;;1.12;88.74;100300.28;3525498;28;20051;-53
2021/03/02 07:32:55;;;;;;;38.92;15.13;;;;;;;1.14;88.66;100297.81;3522308;28;20535;-54
2021/03/02 07:34:37;;;;;;;38.40;14.57;;;;;;;1.15;88.82;100308.16;3523323;28;20048;-53
2021/03/02 07:36:19;;;;;;;39.50;14.23;;;;;;;1.18;88.35;100303.22;3511363;28;20080;-54
2021/03/02 07:38:16;;;;;;;40.08;14.88;;;;;;;1.19;88.21;100309.22;3518984;28;20246;-54
2021/03/02 07:40:02;;;;;;;45.65;15.65;;;;;;;1.20;88.03;100307.56;3525487;28;20051;-53
2021/03/02 07:41:44;;;;;;;44.80;14.80;;;;;;;1.21;88.32;100310.19;3520317;28;20534;-54
2021/03/02 07:43:31;;;;;;;43.28;15.45;;;;;;;1.23;88.23;100305.16;3523169;28;20044;-53
2021/03/02 07:45:14;;;;;;;45.20;16.30;;;;;;;1.24;88.25;100302.72;3522231;28;20079;-56
2021/03/02 07:47:14;;;;;;;43.63;15.15;;;;;;;1.27;88.33;100296.94;3520198;28;20134;-53
2021/03/02 07:48:56;;;;;;;48.53;16.00;;;;;;;1.28;88.06;100298.66;3525359;28;20058;-54
2021/03/02 07:50:37;;;;;;;39.90;13.45;;;;;;;1.29;87.92;100293.66;3520171;28;20585;-53
2021/03/02 07:52:23;;;;;;;45.30;15.80;;;;;;;1.31;87.78;100283.53;3522958;28;20048;-54
2021/03/02 07:54:16;;;;;;;47.88;16.63;;;;;;;1.31;87.89;100281.84;3513147;28;20474;-53
2021/03/02 07:56:26;;;;;;;47.27;15.60;;;;;;;1.31;87.85;100288.63;3515053;28;20051;-54
2021/03/02 07:58:16;;;;;;;47.10;16.52;;;;;;;1.31;87.78;100278.41;3524718;28;20082;-53
2021/03/02 08:00:23;;;;;;;48.13;16.35;;;;;;;1.32;87.76;100287.88;3521964;28;20048;-54
2021/03/02 08:02:15;;;;;;;39.72;13.95;;;;;;;1.33;87.38;100280.25;3521512;28;20051;-53